Time;durP1;ratioP1;P1;durP2;ratioP2;P2;SDS_P1;SDS_P2;PMS_P1;PMS_P2;Temp;Humidity;BMP_temperature;BMP_pressure;BME280_temperature;BME280_humidity;BME280_pressure;Samples;Min_cycle;Max_cycle;Signal;HPM_P1;HPM_P2
2021/09/18 00:00:50;;;;;;;10.30;8.32;;;15.70;92.20;;;;;;5055078;28;20020;-64
2021/09/18 00:03:16;;;;;;;9.45;7.30;;;15.60;92.20;;;;;;5053737;28;20164;-65
2021/09/18 00:05:41;;;;;;;5.90;5.20;;;15.60;92.30;;;;;;5054081;28;20039;-64
2021/09/18 00:08:07;;;;;;;9.32;5.63;;;15.60;92.30;;;;;;5053552;28;20556;-64
2021/09/18 00:10:33;;;;;;;9.38;7.20;;;15.50;92.40;;;;;;5043494;28;20032;-64
2021/09/18 00:12:58;;;;;;;9.13;7.20;;;15.50;92.40;;;;;;5036353;28;20419;-64
2021/09/18 00:15:24;;;;;;;5.50;4.32;;;15.50;92.40;;;;;;5047093;28;20065;-65
2021/09/18 00:17:49;;;;;;;6.82;3.88;;;15.40;92.40;;;;;;5044229;28;20103;-64
2021/09/18 00:20:15;;;;;;;3.95;3.38;;;15.40;92.40;;;;;;5047185;28;20382;-64
2021/09/18 00:22:41;;;;;;;5.05;3.70;;;15.40;92.40;;;;;;5043895;28;20492;-65
2021/09/18 00:25:07;;;;;;;8.38;5.43;;;15.40;92.40;;;;;;5052284;28;20032;-64
2021/09/18 00:27:33;;;;;;;7.35;5.70;;;15.30;92.40;;;;;;5049636;28;20021;-65
2021/09/18 00:29:58;;;;;;;6.97;5.60;;;15.30;92.40;;;;;;5048249;28;20035;-64
2021/09/18 00:32:24;;;;;;;6.72;6.03;;;15.30;92.40;;;;;;5046898;28;20408;-64
2021/09/18 00:34:49;;;;;;;7.60;6.03;;;15.30;92.50;;;;;;5054680;28;20535;-64
2021/09/18 00:37:15;;;;;;;7.45;6.28;;;15.30;92.50;;;;;;5053776;28;20477;-64
2021/09/18 00:39:40;;;;;;;6.63;5.85;;;15.20;92.50;;;;;;5055403;28;20495;-65
2021/09/18 00:42:06;;;;;;;8.13;6.72;;;15.20;92.60;;;;;;5052074;28;20469;-64
2021/09/18 00:44:31;;;;;;;6.15;5.20;;;15.20;92.70;;;;;;5053553;28;20078;-64
2021/09/18 00:46:57;;;;;;;6.63;5.93;;;15.10;92.70;;;;;;5045077;28;20029;-64
2021/09/18 00:49:22;;;;;;;6.88;5.97;;;15.10;92.80;;;;;;5051796;28;20051;-64
2021/09/18 00:51:49;;;;;;;7.80;5.75;;;15.10;92.90;;;;;;5033772;28;20056;-64
2021/09/18 00:54:14;;;;;;;11.02;8.32;;;15.10;92.90;;;;;;5047932;28;20056;-64
2021/09/18 00:56:42;;;;;;;15.00;11.48;;;15.00;93.00;;;;;;5059729;28;20055;-64
2021/09/18 00:59:07;;;;;;;17.33;13.40;;;15.10;93.10;;;;;;5043323;28;20025;-64
2021/09/18 01:01:33;;;;;;;16.95;13.10;;;15.00;93.10;;;;;;5054402;28;20025;-64
2021/09/18 01:04:00;;;;;;;16.48;13.20;;;15.00;93.10;;;;;;5053037;28;20104;-64
2021/09/18 01:06:29;;;;;;;15.88;11.80;;;15.00;93.10;;;;;;5046415;28;20090;-64
2021/09/18 01:08:58;;;;;;;13.05;10.85;;;15.00;93.20;;;;;;5031868;28;20017;-64
2021/09/18 01:11:24;;;;;;;13.45;9.75;;;15.00;93.20;;;;;;5057397;28;20032;-64
2021/09/18 01:13:50;;;;;;;11.80;9.27;;;14.90;93.20;;;;;;5053056;28;20021;-65
2021/09/18 01:16:15;;;;;;;10.68;8.48;;;14.90;93.30;;;;;;5056210;28;20043;-64
2021/09/18 01:18:41;;;;;;;13.90;9.27;;;14.90;93.30;;;;;;5049946;28;20025;-64
2021/09/18 01:21:10;;;;;;;11.45;8.77;;;14.90;93.30;;;;;;5035883;28;20017;-64
2021/09/18 01:23:35;;;;;;;11.20;8.73;;;14.80;93.40;;;;;;5054445;28;20017;-64
2021/09/18 01:26:01;;;;;;;11.73;8.82;;;14.80;93.40;;;;;;5050887;28;20071;-64
2021/09/18 01:28:26;;;;;;;12.35;7.97;;;14.70;93.40;;;;;;5048225;28;20036;-64
2021/09/18 01:30:53;;;;;;;10.63;8.75;;;14.70;93.50;;;;;;5049446;28;20028;-64
2021/09/18 01:33:18;;;;;;;16.85;11.07;;;14.80;93.50;;;;;;5043727;28;20021;-64
2021/09/18 01:35:44;;;;;;;12.20;9.07;;;14.70;93.60;;;;;;5056442;28;20036;-64
2021/09/18 01:38:10;;;;;;;16.63;9.45;;;14.70;93.60;;;;;;5027641;28;20031;-64
2021/09/18 01:40:39;;;;;;;24.73;11.18;;;14.60;93.70;;;;;;5051721;28;20018;-64
2021/09/18 01:43:05;;;;;;;24.08;13.55;;;14.60;93.80;;;;;;5056301;28;20017;-64
2021/09/18 01:45:31;;;;;;;25.08;12.80;;;14.60;93.90;;;;;;5045051;28;20014;-64
2021/09/18 01:48:02;;;;;;;22.42;12.98;;;14.50;93.90;;;;;;5032263;28;20025;-64
2021/09/18 01:50:30;;;;;;;35.05;13.35;;;14.60;94.00;;;;;;5038709;28;20574;-64
2021/09/18 01:53:01;;;;;;;18.55;14.95;;;14.50;94.10;;;;;;5040556;28;20383;-64
2021/09/18 01:55:27;;;;;;;23.83;13.80;;;14.50;94.30;;;;;;5047102;28;20442;-64
2021/09/18 01:57:55;;;;;;;18.58;14.15;;;14.50;94.30;;;;;;5050436;28;20163;-64
2021/09/18 02:00:21;;;;;;;16.80;13.50;;;14.50;94.40;;;;;;5038379;28;20021;-64
2021/09/18 02:02:47;;;;;;;14.57;12.40;;;14.40;94.40;;;;;;5045282;28;20421;-64
2021/09/18 02:05:16;;;;;;;13.45;11.90;;;14.40;94.50;;;;;;5051498;28;20504;-64
2021/09/18 02:07:41;;;;;;;15.07;11.25;;;14.40;94.50;;;;;;5042413;28;20029;-64
2021/09/18 02:10:10;;;;;;;10.27;8.38;;;14.30;94.50;;;;;;5042613;28;20091;-64
2021/09/18 02:12:36;;;;;;;11.00;8.02;;;14.30;94.50;;;;;;5046788;28;20022;-64
2021/09/18 02:15:03;;;;;;;8.65;7.63;;;14.20;94.80;;;;;;5067886;28;20361;-64
2021/09/18 02:17:28;;;;;;;9.95;7.28;;;14.10;94.70;;;;;;5061951;28;20041;-64
2021/09/18 02:19:54;;;;;;;7.35;6.65;;;14.10;94.80;;;;;;5045756;28;20013;-64
2021/09/18 02:22:19;;;;;;;10.13;7.78;;;14.00;94.80;;;;;;5051101;28;20028;-64
2021/09/18 02:24:45;;;;;;;8.25;7.22;;;14.10;94.80;;;;;;5040642;28;20063;-64
2021/09/18 02:27:10;;;;;;;9.15;7.45;;;14.00;94.80;;;;;;5030559;28;20469;-64
2021/09/18 02:29:36;;;;;;;10.55;7.82;;;14.00;95.10;;;;;;5050674;28;20053;-64
2021/09/18 02:32:02;;;;;;;10.63;8.30;;;14.00;94.80;;;;;;5051564;28;20048;-64
2021/09/18 02:34:27;;;;;;;8.38;7.53;;;13.90;94.80;;;;;;5053969;28;20075;-64
2021/09/18 02:36:53;;;;;;;8.15;7.35;;;13.90;94.90;;;;;;5050007;28;20499;-64
2021/09/18 02:39:18;;;;;;;8.85;8.02;;;13.90;94.90;;;;;;5051082;28;20025;-64
2021/09/18 02:41:44;;;;;;;8.43;7.63;;;13.90;94.90;;;;;;5046479;28;20021;-64
2021/09/18 02:44:10;;;;;;;9.68;7.68;;;13.90;94.90;;;;;;5056646;28;20017;-64
2021/09/18 02:46:35;;;;;;;15.48;8.23;;;13.90;94.90;;;;;;5058326;28;20029;-64
2021/09/18 02:49:01;;;;;;;8.75;7.85;;;13.90;94.90;;;;;;5056020;28;20053;-64
2021/09/18 02:51:26;;;;;;;8.20;7.32;;;13.80;95.00;;;;;;5057109;28;20044;-64
2021/09/18 02:53:52;;;;;;;8.57;7.70;;;13.80;95.00;;;;;;5051010;28;20522;-64
2021/09/18 02:56:18;;;;;;;10.10;7.63;;;13.80;95.00;;;;;;5050776;28;20583;-64
2021/09/18 02:58:43;;;;;;;9.18;7.55;;;13.70;95.00;;;;;;5049370;28;20040;-64
2021/09/18 03:01:09;;;;;;;8.02;7.22;;;13.70;95.00;;;;;;5054383;28;20033;-64
2021/09/18 03:03:34;;;;;;;8.20;7.38;;;13.70;95.00;;;;;;5042395;28;20021;-64
2021/09/18 03:06:00;;;;;;;7.72;6.93;;;13.70;95.00;;;;;;5048983;28;20083;-64
2021/09/18 03:08:25;;;;;;;7.88;6.97;;;13.70;95.00;;;;;;5053105;28;20104;-64
2021/09/18 03:10:51;;;;;;;8.63;6.70;;;13.70;95.00;;;;;;5050565;28;20027;-64
2021/09/18 03:13:17;;;;;;;7.05;6.35;;;13.70;95.00;;;;;;5038771;28;20021;-64
2021/09/18 03:15:43;;;;;;;5.45;4.93;;;13.70;95.00;;;;;;5051400;28;20013;-64
2021/09/18 03:18:08;;;;;;;6.18;5.55;;;13.60;95.00;;;;;;5055196;28;20226;-64
2021/09/18 03:20:34;;;;;;;6.30;4.80;;;13.60;95.10;;;;;;5049383;28;20473;-64
2021/09/18 03:22:59;;;;;;;5.15;3.97;;;13.60;95.10;;;;;;5051511;28;20017;-64
2021/09/18 03:25:25;;;;;;;4.15;3.75;;;13.60;95.20;;;;;;5050268;28;20029;-64
2021/09/18 03:27:50;;;;;;;6.32;3.70;;;13.60;95.20;;;;;;5058793;28;20025;-64
2021/09/18 03:30:16;;;;;;;5.93;3.67;;;13.60;95.20;;;;;;5048922;28;20025;-64
2021/09/18 03:32:41;;;;;;;4.30;3.90;;;13.60;95.20;;;;;;5051508;28;20401;-64
2021/09/18 03:35:07;;;;;;;4.60;4.07;;;13.50;95.20;;;;;;5048958;28;20040;-64
2021/09/18 03:37:36;;;;;;;6.70;4.40;;;13.50;95.20;;;;;;5048937;28;20018;-64
2021/09/18 03:40:07;;;;;;;5.82;4.65;;;13.50;95.30;;;;;;5056069;28;20028;-64
2021/09/18 03:42:33;;;;;;;5.47;3.88;;;13.50;95.30;;;;;;5055054;28;20017;-64
2021/09/18 03:44:58;;;;;;;5.00;3.53;;;13.50;95.40;;;;;;5053203;28;20028;-64
2021/09/18 03:47:24;;;;;;;10.82;4.30;;;13.50;95.40;;;;;;5030022;28;20024;-64
2021/09/18 03:49:49;;;;;;;4.55;4.15;;;13.40;95.40;;;;;;5054504;28;20055;-64
2021/09/18 03:52:15;;;;;;;4.95;4.40;;;13.40;95.40;;;;;;5053790;28;20036;-64
2021/09/18 03:54:40;;;;;;;4.55;4.00;;;13.30;95.50;;;;;;5052354;28;20057;-64
2021/09/18 03:57:06;;;;;;;4.00;3.60;;;13.40;95.50;;;;;;5052232;28;20103;-64
2021/09/18 03:59:31;;;;;;;4.10;3.67;;;13.40;95.50;;;;;;5052640;28;20067;-64
2021/09/18 04:01:57;;;;;;;4.03;3.63;;;13.30;95.50;;;;;;5052917;28;20020;-64
2021/09/18 04:04:22;;;;;;;4.57;3.45;;;13.30;95.50;;;;;;5042663;28;20032;-64
2021/09/18 04:06:48;;;;;;;3.90;3.38;;;13.30;95.60;;;;;;5052102;28;20021;-64
2021/09/18 04:09:14;;;;;;;3.10;2.80;;;13.30;95.60;;;;;;5051771;28;20044;-64
2021/09/18 04:11:40;;;;;;;3.05;2.75;;;13.30;95.60;;;;;;5053499;28;20024;-63
2021/09/18 04:14:06;;;;;;;4.90;2.65;;;13.30;95.60;;;;;;5050006;28;20021;-64
2021/09/18 04:16:32;;;;;;;3.47;2.95;;;13.20;96.00;;;;;;5055901;28;20082;-64
2021/09/18 04:18:57;;;;;;;3.42;3.13;;;13.20;95.80;;;;;;5057766;28;20028;-64
2021/09/18 04:21:23;;;;;;;6.00;3.47;;;13.20;95.80;;;;;;5049492;28;20032;-64
2021/09/18 04:23:48;;;;;;;3.72;3.10;;;13.20;95.80;;;;;;5048227;28;20101;-64
2021/09/18 04:26:14;;;;;;;3.05;2.75;;;13.20;95.80;;;;;;5045836;28;20076;-64
2021/09/18 04:28:40;;;;;;;3.03;2.70;;;13.20;95.80;;;;;;5043410;28;20021;-64
2021/09/18 04:31:05;;;;;;;3.15;2.20;;;13.10;95.80;;;;;;5052770;28;20496;-64
2021/09/18 04:33:31;;;;;;;2.20;1.90;;;13.10;95.80;;;;;;5047865;28;20021;-64
2021/09/18 04:35:57;;;;;;;2.63;2.35;;;13.10;95.80;;;;;;5050335;28;20029;-64
2021/09/18 04:38:22;;;;;;;8.38;2.00;;;13.10;95.90;;;;;;5029969;28;20075;-64
2021/09/18 04:41:10;;;;;;;3.80;1.70;;;13.00;95.90;;;;;;5053255;28;20499;-64
2021/09/18 04:43:36;;;;;;;2.10;1.83;;;13.00;95.90;;;;;;5040750;28;20036;-64
2021/09/18 04:46:02;;;;;;;3.10;2.40;;;12.90;96.00;;;;;;5047434;28;20021;-64
2021/09/18 04:48:29;;;;;;;2.28;2.08;;;12.90;96.00;;;;;;5051558;28;20045;-64
2021/09/18 04:50:54;;;;;;;2.25;2.05;;;12.90;96.00;;;;;;5055772;28;20498;-64
2021/09/18 04:53:20;;;;;;;3.30;2.42;;;12.90;96.00;;;;;;5060526;28;20096;-64
2021/09/18 04:55:46;;;;;;;2.63;2.42;;;12.90;96.00;;;;;;5048944;28;20029;-64
2021/09/18 04:58:12;;;;;;;3.90;2.58;;;12.90;96.00;;;;;;5057110;28;20492;-64
2021/09/18 05:00:37;;;;;;;4.72;2.72;;;12.90;96.00;;;;;;5060568;28;20044;-64
2021/09/18 05:03:03;;;;;;;4.63;3.00;;;12.80;96.00;;;;;;5045136;28;20033;-63
2021/09/18 05:05:29;;;;;;;3.40;3.10;;;12.90;96.10;;;;;;5053062;28;20028;-64
2021/09/18 05:07:54;;;;;;;2.45;2.25;;;12.90;96.10;;;;;;5035732;28;20017;-64
2021/09/18 05:10:20;;;;;;;3.10;2.80;;;12.90;96.10;;;;;;5046377;28;20062;-64
2021/09/18 05:12:45;;;;;;;3.70;2.65;;;12.80;96.10;;;;;;5048995;28;20021;-64
2021/09/18 05:15:11;;;;;;;4.97;3.50;;;12.80;96.10;;;;;;5053716;28;20048;-64
2021/09/18 05:17:37;;;;;;;5.13;3.20;;;12.80;96.20;;;;;;5045162;28;20040;-64
2021/09/18 05:20:04;;;;;;;6.85;2.97;;;12.80;96.20;;;;;;5055203;28;20044;-64
2021/09/18 05:22:30;;;;;;;3.10;2.80;;;12.80;96.20;;;;;;5051963;28;20036;-64
2021/09/18 05:24:56;;;;;;;3.65;3.33;;;12.80;96.50;;;;;;5037226;28;20021;-64
2021/09/18 05:27:21;;;;;;;3.13;2.80;;;12.80;96.30;;;;;;5046820;28;20021;-64
2021/09/18 05:29:47;;;;;;;2.50;2.30;;;12.80;96.30;;;;;;5042705;28;20021;-64
2021/09/18 05:32:13;;;;;;;3.92;2.53;;;12.70;96.30;;;;;;5048342;28;20115;-64
2021/09/18 05:34:39;;;;;;;3.00;2.65;;;12.70;96.30;;;;;;5046778;28;20048;-64
2021/09/18 05:37:05;;;;;;;5.22;3.13;;;12.70;96.30;;;;;;5047548;28;20413;-64
2021/09/18 05:39:31;;;;;;;10.38;4.00;;;12.70;96.30;;;;;;5058626;28;20488;-64
2021/09/18 05:41:57;;;;;;;4.82;3.40;;;12.80;96.40;;;;;;5042416;28;20021;-64
2021/09/18 05:44:22;;;;;;;5.70;3.42;;;12.80;96.60;;;;;;5047164;28;20495;-64
2021/09/18 05:46:48;;;;;;;4.95;2.70;;;12.80;96.40;;;;;;5050941;28;20021;-64
2021/09/18 05:49:14;;;;;;;5.40;3.10;;;12.80;96.40;;;;;;5044282;28;20505;-64
2021/09/18 05:51:40;;;;;;;5.65;3.05;;;12.80;96.70;;;;;;5050549;28;20028;-64
2021/09/18 05:54:06;;;;;;;8.18;3.15;;;12.80;96.50;;;;;;5050847;28;20017;-64
2021/09/18 05:56:31;;;;;;;7.63;3.65;;;12.80;96.50;;;;;;5048488;28;20069;-64
2021/09/18 05:58:57;;;;;;;3.80;2.78;;;12.80;96.50;;;;;;5047249;28;20100;-64
2021/09/18 06:01:22;;;;;;;2.60;2.40;;;12.90;96.60;;;;;;5072399;28;20554;-64
2021/09/18 06:03:48;;;;;;;4.07;2.58;;;12.90;96.60;;;;;;5050163;28;20017;-64
2021/09/18 06:06:14;;;;;;;3.05;2.50;;;12.90;96.70;;;;;;5038142;28;20022;-64
2021/09/18 06:08:39;;;;;;;5.18;2.88;;;12.90;97.00;;;;;;5050505;28;20032;-64
2021/09/18 06:11:05;;;;;;;4.40;2.03;;;13.00;96.70;;;;;;5052769;28;20096;-64
2021/09/18 06:13:30;;;;;;;3.35;3.00;;;13.00;97.00;;;;;;5055893;28;20358;-64
2021/09/18 06:15:56;;;;;;;3.70;2.28;;;13.00;96.80;;;;;;5055436;28;20610;-64
2021/09/18 06:18:24;;;;;;;2.33;2.13;;;13.00;96.80;;;;;;5047985;28;20037;-64
2021/09/18 06:20:59;;;;;;;2.90;2.70;;;13.00;96.80;;;;;;5035083;28;20551;-64
2021/09/18 06:23:25;;;;;;;2.75;2.38;;;13.10;96.80;;;;;;5040641;28;20064;-64
2021/09/18 06:25:51;;;;;;;4.43;2.78;;;13.10;96.90;;;;;;5038104;28;20029;-64
2021/09/18 06:28:18;;;;;;;3.17;2.75;;;13.10;96.90;;;;;;5046998;28;20029;-64
2021/09/18 06:30:44;;;;;;;2.70;2.42;;;13.20;96.90;;;;;;5051023;28;20022;-64
2021/09/18 06:33:10;;;;;;;2.50;2.30;;;13.20;96.90;;;;;;5043027;28;20162;-64
2021/09/18 06:35:35;;;;;;;3.03;2.72;;;13.20;97.00;;;;;;5054605;28;20472;-64
2021/09/18 06:38:01;;;;;;;3.28;2.90;;;13.30;97.00;;;;;;5054948;28;20440;-64
2021/09/18 06:40:26;;;;;;;3.08;2.78;;;13.30;97.10;;;;;;5035792;28;20032;-64
2021/09/18 06:42:59;;;;;;;3.60;3.13;;;13.40;97.10;;;;;;5053599;28;20028;-64
2021/09/18 06:53:15;;;;;;;3.05;2.75;;;13.50;97.30;;;;;;4988392;28;20518;-64
2021/09/18 06:55:42;;;;;;;3.42;3.13;;;13.50;97.30;;;;;;4889997;29;20049;-64
2021/09/18 06:58:10;;;;;;;3.70;3.10;;;13.50;97.30;;;;;;5033118;28;20047;-64
2021/09/18 07:00:36;;;;;;;3.60;3.25;;;13.60;97.40;;;;;;5075618;28;20036;-64
2021/09/18 07:03:01;;;;;;;3.45;3.15;;;13.70;97.40;;;;;;5065421;28;20025;-64
2021/09/18 07:05:27;;;;;;;3.80;3.47;;;13.80;97.40;;;;;;5050488;28;20469;-64
2021/09/18 07:07:52;;;;;;;5.15;3.92;;;13.90;97.50;;;;;;5051652;28;20025;-65
2021/09/18 07:10:20;;;;;;;4.28;3.63;;;14.00;97.80;;;;;;5035730;28;20032;-64
2021/09/18 07:12:46;;;;;;;4.10;3.70;;;14.10;97.50;;;;;;5042343;28;20025;-64
2021/09/18 07:15:12;;;;;;;3.88;3.47;;;14.10;97.50;;;;;;5047522;28;20178;-64
2021/09/18 07:17:38;;;;;;;5.30;3.70;;;14.20;97.60;;;;;;5054142;28;20439;-64
2021/09/18 07:20:05;;;;;;;4.32;3.85;;;14.20;97.60;;;;;;5053370;28;20021;-64
2021/09/18 07:22:31;;;;;;;5.15;4.57;;;14.30;97.60;;;;;;5049455;28;20037;-64
2021/09/18 07:24:57;;;;;;;4.63;4.22;;;14.30;97.70;;;;;;5053614;28;20025;-64
2021/09/18 07:27:22;;;;;;;5.10;4.60;;;14.40;97.80;;;;;;5054678;28;20052;-64
2021/09/18 07:29:51;;;;;;;4.85;4.40;;;14.50;97.80;;;;;;5052065;28;20131;-64
2021/09/18 07:32:20;;;;;;;5.20;4.70;;;14.60;97.90;;;;;;5036864;28;20521;-64
2021/09/18 07:34:46;;;;;;;5.63;4.97;;;14.70;97.90;;;;;;5048771;28;20063;-64
2021/09/18 07:37:11;;;;;;;6.15;4.88;;;14.80;97.90;;;;;;5047888;28;20032;-64
2021/09/18 07:39:37;;;;;;;5.70;5.20;;;14.90;97.90;;;;;;5042898;28;20384;-64
2021/09/18 07:42:33;;;;;;;6.70;6.10;;;14.90;97.90;;;;;;5072891;28;20025;-64
2021/09/18 07:45:09;;;;;;;8.68;6.15;;;15.00;98.00;;;;;;5058353;28;20469;-65
2021/09/18 07:47:34;;;;;;;6.90;6.13;;;15.10;98.10;;;;;;5046847;28;20033;-65
2021/09/18 07:50:00;;;;;;;6.47;5.57;;;15.20;98.20;;;;;;5041210;28;20043;-65
2021/09/18 07:52:25;;;;;;;6.90;6.20;;;15.30;98.20;;;;;;5056768;28;20151;-64
2021/09/18 07:54:51;;;;;;;5.97;5.22;;;15.40;98.20;;;;;;5039953;28;20173;-64
2021/09/18 07:57:16;;;;;;;7.28;6.05;;;15.50;98.20;;;;;;5054273;28;20033;-64
2021/09/18 07:59:42;;;;;;;7.65;6.22;;;15.60;98.30;;;;;;5036655;28;20116;-65
2021/09/18 08:02:08;;;;;;;7.97;7.03;;;15.70;98.20;;;;;;5052855;28;20021;-64
2021/09/18 08:04:34;;;;;;;7.53;6.82;;;15.80;98.20;;;;;;5053586;28;20036;-65
2021/09/18 08:06:59;;;;;;;9.60;7.25;;;15.90;98.20;;;;;;5051288;28;20421;-65
2021/09/18 08:09:25;;;;;;;9.10;7.30;;;16.00;98.20;;;;;;5033798;28;20488;-65
2021/09/18 08:11:51;;;;;;;7.80;7.05;;;16.10;98.20;;;;;;5046797;28;20033;-65
2021/09/18 08:14:17;;;;;;;7.40;6.70;;;16.20;98.20;;;;;;5038405;28;20036;-65
2021/09/18 08:16:43;;;;;;;8.55;7.65;;;16.30;98.50;;;;;;5053629;28;20033;-64
2021/09/18 08:19:08;;;;;;;7.53;6.72;;;16.30;98.10;;;;;;5061383;28;20024;-64
2021/09/18 08:21:34;;;;;;;7.20;6.43;;;16.40;98.10;;;;;;5065030;28;20146;-64
2021/09/18 08:24:00;;;;;;;6.07;5.47;;;16.50;98.20;;;;;;5032409;28;20048;-64
2021/09/18 08:26:30;;;;;;;8.50;7.05;;;16.60;98.10;;;;;;5049222;28;20107;-64
2021/09/18 08:28:57;;;;;;;8.30;7.32;;;16.70;98.10;;;;;;5050398;28;20066;-64
2021/09/18 08:31:23;;;;;;;8.98;8.07;;;16.80;98.10;;;;;;5050641;28;20123;-64
2021/09/18 08:33:49;;;;;;;9.02;7.97;;;16.90;98.00;;;;;;5045269;28;20033;-64
2021/09/18 08:36:15;;;;;;;9.23;7.85;;;17.00;98.00;;;;;;5049140;28;20516;-64
2021/09/18 08:38:40;;;;;;;8.10;7.32;;;17.10;97.90;;;;;;5031512;28;20013;-64
2021/09/18 08:41:07;;;;;;;8.57;7.68;;;17.20;97.90;;;;;;5048735;28;20036;-64
2021/09/18 08:43:33;;;;;;;9.32;8.43;;;17.20;97.90;;;;;;5047373;28;20514;-64
2021/09/18 08:45:59;;;;;;;10.10;9.05;;;17.30;97.80;;;;;;5046459;28;20037;-64
2021/09/18 08:48:44;;;;;;;8.57;7.68;;;17.40;97.80;;;;;;5047782;28;20025;-64
2021/09/18 08:51:10;;;;;;;9.07;8.18;;;17.50;97.80;;;;;;5048218;28;20311;-64
2021/09/18 08:53:38;;;;;;;8.30;7.50;;;17.60;97.70;;;;;;5030602;28;20113;-64
2021/09/18 08:56:04;;;;;;;9.23;7.90;;;17.70;97.70;;;;;;5049818;28;20075;-64
2021/09/18 08:58:38;;;;;;;9.52;7.82;;;17.90;97.60;;;;;;5051614;28;20037;-64
2021/09/18 09:01:04;;;;;;;8.98;8.07;;;18.00;97.50;;;;;;5051708;28;20044;-64
2021/09/18 09:03:40;;;;;;;9.35;7.25;;;18.10;97.40;;;;;;5045767;28;20061;-64
2021/09/18 09:06:47;;;;;;;8.65;7.72;;;18.10;97.30;;;;;;5051295;28;20021;-64
2021/09/18 09:09:13;;;;;;;7.20;6.10;;;18.20;97.10;;;;;;5044330;28;20047;-64
2021/09/18 09:12:07;;;;;;;8.35;7.55;;;18.20;97.30;;;;;;5028985;28;20113;-64
2021/09/18 09:14:43;;;;;;;9.20;8.30;;;18.20;97.20;;;;;;5047362;28;20027;-64
2021/09/18 09:17:09;;;;;;;11.23;10.10;;;18.30;97.20;;;;;;5047522;28;20131;-64
2021/09/18 09:19:40;;;;;;;9.95;8.95;;;18.30;97.30;;;;;;5047563;28;20092;-64
2021/09/18 09:22:05;;;;;;;11.00;9.90;;;18.40;97.30;;;;;;5047146;28;20024;-64
2021/09/18 09:24:31;;;;;;;13.30;10.23;;;18.40;97.20;;;;;;5048198;28;20025;-64
2021/09/18 09:27:10;;;;;;;10.38;9.38;;;18.50;97.20;;;;;;5050393;28;20088;-64
2021/09/18 09:29:55;;;;;;;9.90;8.82;;;18.60;97.10;;;;;;5043144;28;20139;-65
2021/09/18 09:32:32;;;;;;;11.57;8.70;;;18.60;97.00;;;;;;5045880;28;20448;-64
2021/09/18 09:35:01;;;;;;;10.30;9.20;;;18.80;97.10;;;;;;5051281;28;20044;-64
2021/09/18 09:37:26;;;;;;;11.70;10.50;;;18.80;97.00;;;;;;5048743;28;20028;-64
2021/09/18 09:39:55;;;;;;;12.88;10.30;;;19.00;96.90;;;;;;5044928;28;20025;-64
2021/09/18 09:42:30;;;;;;;12.35;10.57;;;19.10;96.70;;;;;;5050926;28;20370;-65
2021/09/18 09:45:19;;;;;;;11.18;10.00;;;19.30;96.60;;;;;;5030542;28;20032;-64
2021/09/18 09:47:45;;;;;;;;;;;19.50;96.30;;;;;;5048583;28;20021;-64
2021/09/18 09:50:13;;;;;;;11.73;9.95;;;19.60;96.30;;;;;;5044193;28;20380;-65
2021/09/18 09:52:40;;;;;;;10.60;9.50;;;19.70;96.20;;;;;;5019066;28;20035;-65
2021/09/18 09:55:15;;;;;;;11.15;9.18;;;19.90;95.90;;;;;;5051810;28;20507;-64
2021/09/18 09:58:05;;;;;;;9.27;8.35;;;20.10;95.70;;;;;;5052498;28;20100;-65
2021/09/18 10:00:51;;;;;;;9.75;8.73;;;20.30;95.60;;;;;;5045736;28;20044;-64
2021/09/18 10:03:23;;;;;;;9.05;8.10;;;20.40;95.20;;;;;;5033442;28;20071;-65
2021/09/18 10:06:00;;;;;;;;;;;;;;;;;;;;;
2021/09/18 10:08:26;;;;;;;9.13;8.23;;;20.90;94.90;;;;;;5046057;28;20044;-65
2021/09/18 10:10:53;;;;;;;10.15;8.40;;;21.10;94.50;;;;;;5032472;28;20092;-65
2021/09/18 10:13:23;;;;;;;7.68;6.55;;;21.30;94.20;;;;;;5033619;28;20433;-65
2021/09/18 10:15:50;;;;;;;9.07;8.18;;;21.50;93.80;;;;;;5043597;28;20052;-65
2021/09/18 10:18:16;;;;;;;7.55;6.78;;;21.80;93.50;;;;;;5032065;28;20029;-65
2021/09/18 10:23:20;;;;;;;8.98;7.15;;;22.20;92.60;;;;;;5032115;28;20382;-65
2021/09/18 10:26:16;;;;;;;6.95;6.15;;;22.40;92.10;;;;;;5045447;28;20026;-65
2021/09/18 10:28:45;;;;;;;6.63;4.88;;;22.80;91.60;;;;;;5048586;28;20036;-65
2021/09/18 10:31:17;;;;;;;5.60;4.63;;;23.00;91.20;;;;;;5050786;28;20103;-65
2021/09/18 10:33:46;;;;;;;6.07;5.18;;;23.40;91.20;;;;;;5050078;28;20132;-65
2021/09/18 10:36:16;;;;;;;5.80;5.25;;;23.70;90.30;;;;;;5048737;28;20037;-65
2021/09/18 10:39:10;;;;;;;4.22;3.83;;;24.00;88.40;;;;;;5047236;28;20163;-65
2021/09/18 10:41:44;;;;;;;3.83;3.30;;;24.30;87.70;;;;;;5031637;28;20039;-66
2021/09/18 10:44:10;;;;;;;4.57;3.72;;;24.90;85.80;;;;;;5051782;28;20362;-66
2021/09/18 10:46:47;;;;;;;6.35;3.85;;;25.40;84.60;;;;;;5050053;28;20025;-66
2021/09/18 10:50:09;;;;;;;;;;;;;;;;;;;;;
2021/09/18 10:52:37;;;;;;;2.95;2.47;;;27.00;82.20;;;;;;5043872;28;20055;-66
2021/09/18 10:55:02;;;;;;;2.35;2.15;;;28.80;80.00;;;;;;5038884;28;20025;-66
2021/09/18 10:58:03;;;;;;;;;;;;;;;;;;;;;
2021/09/18 11:00:29;;;;;;;2.08;1.70;;;33.40;66.80;;;;;;5036062;28;20022;-67
2021/09/18 11:03:00;;;;;;;1.63;1.52;;;35.00;61.60;;;;;;5053995;28;20096;-67
2021/09/18 11:05:37;;;;;;;1.30;1.10;;;37.00;57.20;;;;;;5050671;28;20103;-66
2021/09/18 11:08:33;;;;;;;1.77;0.93;;;38.70;53.70;;;;;;5054254;28;20512;-67
2021/09/18 11:14:39;;;;;;;2.25;1.05;;;42.10;47.60;;;;;;4978952;28;20025;-67
2021/09/18 11:17:40;;;;;;;1.00;0.90;;;43.50;44.30;;;;;;5049880;28;20469;-67
2021/09/18 11:20:30;;;;;;;;;;;;;;;;;;;;;
2021/09/18 11:22:56;;;;;;;1.40;1.30;;;45.60;40.50;;;;;;5035273;28;20013;-67
2021/09/18 11:25:33;;;;;;;1.40;1.30;;;46.50;38.60;;;;;;5049526;28;20097;-67
2021/09/18 11:28:13;;;;;;;1.83;1.38;;;47.30;37.00;;;;;;5051381;28;20029;-67
2021/09/18 11:31:14;;;;;;;;;;;;;;;;;;;;;
2021/09/18 11:33:39;;;;;;;2.47;1.75;;;48.10;35.70;;;;;;5053113;28;20021;-67
2021/09/18 11:36:11;;;;;;;1.77;1.67;;;48.10;35.40;;;;;;5059119;28;20104;-67
2021/09/18 11:38:36;;;;;;;2.25;2.15;;;48.60;35.30;;;;;;5048137;28;20021;-67
2021/09/18 11:41:13;;;;;;;1.92;1.77;;;48.80;34.60;;;;;;5039301;28;20107;-67
2021/09/18 11:43:39;;;;;;;;;;;49.40;34.50;;;;;;5039587;28;20021;-67
2021/09/18 11:46:05;;;;;;;1.60;1.50;;;50.00;34.90;;;;;;5042675;28;19928;-67
2021/09/18 11:48:31;;;;;;;1.75;1.65;;;50.10;32.80;;;;;;5047361;28;20053;-67
2021/09/18 11:50:59;;;;;;;1.90;1.80;;;50.20;32.40;;;;;;5033293;28;20517;-66
2021/09/18 11:53:25;;;;;;;1.95;1.85;;;50.50;31.90;;;;;;5032801;28;20029;-66
2021/09/18 11:55:55;;;;;;;2.45;2.25;;;50.80;31.40;;;;;;5033155;28;20061;-66
2021/09/18 11:58:24;;;;;;;2.30;2.10;;;50.90;31.20;;;;;;5027578;28;20493;-66
2021/09/18 12:01:02;;;;;;;2.17;2.08;;;50.70;31.20;;;;;;5030117;28;20095;-66
2021/09/18 12:03:35;;;;;;;1.88;1.77;;;50.80;30.80;;;;;;5028399;28;20053;-66
2021/09/18 12:06:10;;;;;;;1.60;1.50;;;50.80;30.70;;;;;;5024331;28;20047;-66
2021/09/18 12:08:38;;;;;;;1.38;1.27;;;50.70;29.80;;;;;;5034090;28;20097;-66
2021/09/18 12:11:07;;;;;;;1.63;1.52;;;50.90;30.00;;;;;;5030626;28;20031;-66
2021/09/18 12:14:00;;;;;;;;;;;;;;;;;;;;;
2021/09/18 12:16:44;;;;;;;1.83;1.70;;;50.90;29.90;;;;;;5032223;28;20029;-66
2021/09/18 12:19:10;;;;;;;2.50;2.30;;;51.10;29.90;;;;;;5030990;28;20048;-66
2021/09/18 12:21:38;;;;;;;3.07;2.10;;;51.40;29.80;;;;;;5030261;28;20519;-66
2021/09/18 12:24:10;;;;;;;2.90;2.70;;;51.40;29.60;;;;;;5026797;28;20029;-66
2021/09/18 12:26:40;;;;;;;2.78;2.50;;;51.70;29.60;;;;;;5028982;28;20029;-66
2021/09/18 12:29:43;;;;;;;2.92;2.72;;;51.80;29.40;;;;;;5030036;28;20032;-66
2021/09/18 12:32:34;;;;;;;3.20;3.00;;;51.70;28.90;;;;;;5016699;28;20040;-66
2021/09/18 12:35:07;;;;;;;3.08;2.88;;;51.40;29.20;;;;;;5032152;28;20027;-66
2021/09/18 12:37:54;;;;;;;3.08;2.88;;;51.20;28.90;;;;;;5032874;28;20489;-66
2021/09/18 12:40:59;;;;;;;2.85;2.65;;;51.00;29.10;;;;;;5028191;28;20021;-66
2021/09/18 12:43:24;;;;;;;3.00;2.80;;;50.90;29.30;;;;;;5025775;28;20158;-66
2021/09/18 12:45:51;;;;;;;3.00;2.80;;;50.80;29.30;;;;;;5028639;28;20461;-67
2021/09/18 12:48:19;;;;;;;2.55;2.45;;;50.80;29.20;;;;;;5032108;28;20037;-67
2021/09/18 12:50:52;;;;;;;2.72;2.53;;;50.60;29.30;;;;;;5031765;28;20029;-66
2021/09/18 12:53:28;;;;;;;2.88;2.67;;;50.40;29.20;;;;;;5006932;28;20455;-66
2021/09/18 12:56:07;;;;;;;3.63;3.40;;;49.90;29.30;;;;;;5022881;28;20049;-66
2021/09/18 12:58:33;;;;;;;3.47;3.22;;;49.40;29.50;;;;;;5025702;28;20508;-66
2021/09/18 13:01:00;;;;;;;3.40;3.15;;;49.00;29.70;;;;;;5027892;28;20042;-66
2021/09/18 13:03:26;;;;;;;3.50;3.20;;;48.80;29.90;;;;;;5028860;28;20030;-66
2021/09/18 13:05:59;;;;;;;3.75;3.55;;;48.30;30.00;;;;;;5028213;28;20170;-66
2021/09/18 13:08:24;;;;;;;3.50;3.30;;;47.60;30.00;;;;;;5027005;28;20033;-66
2021/09/18 13:10:50;;;;;;;3.22;3.03;;;47.20;30.40;;;;;;5028392;28;20550;-66
2021/09/18 13:13:39;;;;;;;4.25;3.85;;;46.80;30.50;;;;;;5031502;28;20032;-66